createdAt,value
2018-10-01T00:00:14.916Z,100814.59
2018-10-01T00:02:44.613Z,100817.08
2018-10-01T00:08:11.278Z,100805.84
2018-10-01T00:10:42.313Z,100813.34
2018-10-01T00:13:12.923Z,100812.94
2018-10-01T00:15:42.347Z,100827.91
2018-10-01T00:18:12.828Z,100824.16
2018-10-01T00:20:48.448Z,100821.27
2018-10-01T00:23:18.565Z,100821.64
2018-10-01T00:25:47.918Z,100820.38
2018-10-01T00:28:17.412Z,100814.56
2018-10-01T00:30:50.630Z,100809.11
2018-10-01T00:33:20.117Z,100809.95
2018-10-01T00:35:50.286Z,100806.66
2018-10-01T00:38:19.673Z,100809.15
2018-10-01T00:40:49.094Z,100797.06
2018-10-01T00:43:19.023Z,100796.66
2018-10-01T00:45:49.299Z,100784.55
2018-10-01T00:48:18.667Z,100773.77
2018-10-01T00:50:48.757Z,100770.39
2018-10-01T00:53:18.723Z,100775.80
2018-10-01T00:55:49.643Z,100775.81
2018-10-01T00:58:19.752Z,100776.63
2018-10-01T01:00:49.296Z,100768.34
2018-10-01T01:03:18.820Z,100770.81
2018-10-01T01:05:48.359Z,100770.81
2018-10-01T01:08:19.235Z,100769.56
2018-10-01T01:10:48.658Z,100770.78
2018-10-01T01:13:19.612Z,100772.02
2018-10-01T01:15:48.947Z,100769.09
2018-10-01T01:18:18.374Z,100766.99
2018-10-01T01:20:48.102Z,100769.91
2018-10-01T01:23:17.513Z,100769.91
2018-10-01T01:25:46.974Z,100778.63
2018-10-01T01:28:16.429Z,100781.95
2018-10-01T01:30:46.590Z,100785.68
2018-10-01T01:33:16.063Z,100789.42
2018-10-01T01:35:45.461Z,100781.10
2018-10-01T01:38:14.954Z,100783.16
2018-10-01T01:40:44.403Z,100785.64
2018-10-01T01:46:10.826Z,100787.73
2018-10-01T01:48:40.374Z,100789.40
2018-10-01T01:51:09.876Z,100792.30
2018-10-01T01:53:39.291Z,100794.80
2018-10-01T01:56:08.907Z,100791.42
2018-10-01T01:58:38.526Z,100795.59
2018-10-01T02:01:08.102Z,100791.03
2018-10-01T02:03:37.598Z,100791.00
2018-10-01T02:06:06.854Z,100779.78
2018-10-01T02:08:36.476Z,100778.92
2018-10-01T02:11:06.004Z,100780.18
2018-10-01T02:13:35.646Z,100780.17
2018-10-01T02:16:05.006Z,100777.25
2018-10-01T02:18:34.325Z,100776.86
2018-10-01T02:21:03.832Z,100778.52
2018-10-01T02:23:33.418Z,100772.26
2018-10-01T02:26:02.955Z,100778.92
2018-10-01T02:28:32.334Z,100788.50
2018-10-01T02:31:01.766Z,100781.88
2018-10-01T02:33:31.258Z,100788.88
2018-10-01T02:36:00.676Z,100788.85
2018-10-01T02:38:30.141Z,100789.27
2018-10-01T02:40:59.687Z,100787.59
2018-10-01T02:43:29.042Z,100785.08
2018-10-01T02:45:58.504Z,100786.69
2018-10-01T02:48:27.990Z,100782.92
2018-10-01T02:50:59.279Z,100788.34
2018-10-01T02:53:38.146Z,100779.17
2018-10-01T02:56:08.634Z,100776.26
2018-10-01T02:58:43.806Z,100771.25
2018-10-01T03:01:13.309Z,100776.25
2018-10-01T03:06:41.722Z,100778.73
2018-10-01T03:09:13.883Z,100774.12
2018-10-01T03:11:43.502Z,100772.86
2018-10-01T03:14:13.211Z,100767.45
2018-10-01T03:16:42.655Z,100767.46
2018-10-01T03:19:16.337Z,100764.92
2018-10-01T03:21:47.747Z,100771.59
2018-10-01T03:24:17.696Z,100767.03
2018-10-01T03:26:47.142Z,100771.95
2018-10-01T03:29:16.646Z,100764.47
2018-10-01T03:31:47.070Z,100764.02
2018-10-01T03:34:16.459Z,100760.25
2018-10-01T03:36:46.455Z,100762.77
2018-10-01T03:39:18.227Z,100761.91
2018-10-01T03:41:47.642Z,100763.59
2018-10-01T03:44:17.024Z,100757.33
2018-10-01T03:46:46.424Z,100756.91
2018-10-01T03:49:15.855Z,100759.00
2018-10-01T03:51:45.313Z,100757.35
2018-10-01T03:54:16.548Z,100759.03
2018-10-01T03:56:46.540Z,100760.27
2018-10-01T03:59:15.887Z,100762.34
2018-10-01T04:01:45.336Z,100754.05
2018-10-01T04:04:15.158Z,100759.44
2018-10-01T04:06:44.663Z,100762.74
2018-10-01T04:09:14.068Z,100759.00
2018-10-01T04:11:43.479Z,100759.44
2018-10-01T04:14:14.319Z,100756.92
2018-10-01T04:16:44.482Z,100751.52
2018-10-01T04:19:14.467Z,100756.08
2018-10-01T04:21:43.856Z,100763.59
2018-10-01T04:24:13.919Z,100753.98
2018-10-01T04:26:43.289Z,100760.71
2018-10-01T04:29:13.890Z,100751.52
2018-10-01T04:31:45.640Z,100758.59
2018-10-01T04:34:16.110Z,100761.50
2018-10-01T04:36:46.319Z,100758.58
2018-10-01T04:39:15.806Z,100764.38
2018-10-01T04:41:45.167Z,100766.84
2018-10-01T04:44:14.543Z,100779.72
2018-10-01T04:46:44.069Z,100774.30
2018-10-01T04:49:13.446Z,100783.45
2018-10-01T04:51:44.256Z,100783.83
2018-10-01T04:54:13.749Z,100792.16
2018-10-01T04:56:43.062Z,100792.50
2018-10-01T04:59:12.465Z,100788.77
2018-10-01T05:01:41.897Z,100789.23
2018-10-01T05:04:11.586Z,100792.09
2018-10-01T05:06:41.994Z,100785.00
2018-10-01T05:09:12.090Z,100786.22
2018-10-01T05:11:41.448Z,100789.08
2018-10-01T05:14:11.266Z,100786.19
2018-10-01T05:16:40.662Z,100790.70
2018-10-01T05:19:10.025Z,100784.45
2018-10-01T05:21:40.340Z,100790.27
2018-10-01T05:24:09.666Z,100784.82
2018-10-01T05:26:39.530Z,100792.70
2018-10-01T05:29:08.882Z,100796.84
2018-10-01T05:31:38.306Z,100793.52
2018-10-01T05:34:09.403Z,100795.17
2018-10-01T05:36:38.885Z,100795.23
2018-10-01T05:39:12.686Z,100800.65
2018-10-01T05:41:43.812Z,100798.12
2018-10-01T05:44:13.292Z,100800.18
2018-10-01T05:46:44.177Z,100795.23
2018-10-01T05:49:14.703Z,100800.27
2018-10-01T05:51:46.134Z,100806.87
2018-10-01T05:54:15.525Z,100807.75
2018-10-01T05:56:45.236Z,100801.52
2018-10-01T05:59:14.754Z,100809.46
2018-10-01T06:01:44.270Z,100808.68
2018-10-01T06:04:13.876Z,100820.80
2018-10-01T06:06:43.246Z,100819.17
2018-10-01T06:09:13.866Z,100813.34
2018-10-01T06:11:44.275Z,100816.27
2018-10-01T06:14:14.874Z,100822.86
2018-10-01T06:16:44.258Z,100826.66
2018-10-01T06:19:14.684Z,100829.15
2018-10-01T06:21:44.145Z,100833.33
2018-10-01T06:24:13.576Z,100827.95
2018-10-01T06:26:43.022Z,100826.71
2018-10-01T06:29:12.438Z,100831.32
2018-10-01T06:31:41.787Z,100839.61
2018-10-01T06:34:11.246Z,100839.23
2018-10-01T06:36:42.846Z,100847.16
2018-10-01T06:39:12.837Z,100846.74
2018-10-01T06:41:42.372Z,100850.48
2018-10-01T06:44:11.691Z,100852.58
2018-10-01T06:46:42.118Z,100863.36
2018-10-01T06:49:12.439Z,100862.92
2018-10-01T06:51:41.966Z,100867.95
2018-10-01T06:54:12.018Z,100854.63
2018-10-01T06:56:41.487Z,100854.23
2018-10-01T06:59:11.040Z,100865.91
2018-10-01T07:01:40.407Z,100872.26
2018-10-01T07:04:11.862Z,100870.96
2018-10-01T07:06:42.042Z,100874.29
2018-10-01T07:09:12.040Z,100874.72
2018-10-01T07:11:42.592Z,100877.69
2018-10-01T07:14:11.889Z,100882.19
2018-10-01T07:16:41.330Z,100878.96
2018-10-01T07:19:10.866Z,100876.97
2018-10-01T07:21:40.342Z,100874.04
2018-10-01T07:24:10.430Z,100878.27
2018-10-01T07:26:39.914Z,100875.75
2018-10-01T07:29:09.368Z,100879.03
2018-10-01T07:31:38.798Z,100879.95
2018-10-01T07:34:08.148Z,100881.96
2018-10-01T07:36:37.566Z,100881.94
2018-10-01T07:39:08.733Z,100881.86
2018-10-01T07:41:39.069Z,100885.19
2018-10-01T07:44:08.922Z,100877.73
2018-10-01T07:46:38.277Z,100887.72
2018-10-01T07:49:08.098Z,100890.67
2018-10-01T07:51:38.486Z,100889.48
2018-10-01T07:54:08.784Z,100890.36
2018-10-01T07:56:38.472Z,100887.11
2018-10-01T07:59:08.166Z,100888.44
2018-10-01T08:01:37.668Z,100891.38
2018-10-01T08:04:07.446Z,100890.20
2018-10-01T08:06:37.135Z,100896.03
2018-10-01T08:09:10.519Z,100888.98
2018-10-01T08:11:40.642Z,100885.66
2018-10-01T08:14:10.884Z,100887.77
2018-10-01T08:16:40.234Z,100889.01
2018-10-01T08:19:09.636Z,100887.81
2018-10-01T08:21:39.127Z,100887.42
2018-10-01T08:24:09.172Z,100887.06
2018-10-01T08:26:40.119Z,100889.17
2018-10-01T08:29:10.136Z,100890.42
2018-10-01T08:31:39.446Z,100894.11
2018-10-01T08:34:08.894Z,100898.34
2018-10-01T08:36:38.710Z,100897.22
2018-10-01T08:39:11.731Z,100894.71
2018-10-01T08:41:41.735Z,100893.04
2018-10-01T08:44:13.164Z,100895.14
2018-10-01T08:46:43.618Z,100893.91
2018-10-01T08:51:21.731Z,100891.45
2018-10-01T08:53:55.876Z,100905.23
2018-10-01T08:56:28.580Z,100907.74
2018-10-01T08:58:57.995Z,100906.52
2018-10-01T09:01:28.074Z,100906.12
2018-10-01T09:03:57.698Z,100909.47
2018-10-01T09:06:27.217Z,100913.22
2018-10-01T09:08:56.709Z,100914.49
2018-10-01T09:11:27.254Z,100915.73
2018-10-01T09:13:56.751Z,100912.81
2018-10-01T09:16:26.218Z,100915.30
2018-10-01T09:18:55.759Z,100908.18
2018-10-01T09:21:25.251Z,100922.31
2018-10-01T09:23:54.599Z,100913.52
2018-10-01T09:26:23.979Z,100918.92
2018-10-01T09:28:53.419Z,100920.66
2018-10-01T09:31:22.946Z,100923.12
2018-10-01T09:33:52.475Z,100918.58
2018-10-01T09:36:22.028Z,100920.30
2018-10-01T09:38:51.398Z,100918.23
2018-10-01T09:41:20.887Z,100915.72
2018-10-01T09:43:50.800Z,100916.14
2018-10-01T09:46:21.115Z,100916.13
2018-10-01T09:48:52.155Z,100915.69
2018-10-01T09:51:21.693Z,100910.69
2018-10-01T09:53:51.869Z,100909.45
2018-10-01T09:56:22.233Z,100909.45
2018-10-01T09:58:51.602Z,100909.47
2018-10-01T10:01:23.228Z,100899.86
2018-10-01T10:03:52.691Z,100889.83
2018-10-01T10:06:22.219Z,100894.41
2018-10-01T10:08:52.247Z,100894.83
2018-10-01T10:11:21.751Z,100894.87
2018-10-01T10:13:51.248Z,100899.88
2018-10-01T10:16:20.755Z,100907.38
2018-10-01T10:18:51.309Z,100899.45
2018-10-01T10:21:20.806Z,100904.84
2018-10-01T10:23:50.322Z,100911.87
2018-10-01T10:26:20.532Z,100919.35
2018-10-01T10:28:49.934Z,100923.44
2018-10-01T10:31:19.420Z,100927.83
2018-10-01T10:33:49.897Z,100933.48
2018-10-01T10:36:20.370Z,100937.45
2018-10-01T10:38:50.179Z,100935.28
2018-10-01T10:41:19.567Z,100937.30
2018-10-01T10:43:48.998Z,100936.94
2018-10-01T10:46:19.542Z,100941.53
2018-10-01T10:48:49.188Z,100939.46
2018-10-01T10:51:18.873Z,100940.71
2018-10-01T10:53:53.009Z,100951.89
2018-10-01T10:56:22.559Z,100959.75
2018-10-01T10:58:52.699Z,100958.50
2018-10-01T11:01:22.746Z,100959.50
2018-10-01T11:03:52.251Z,100949.48
2018-10-01T11:06:21.742Z,100958.95
2018-10-01T11:08:51.255Z,100964.73
2018-10-01T11:11:21.683Z,100970.44
2018-10-01T11:13:51.168Z,100994.23
2018-10-01T11:16:20.590Z,100998.33
2018-10-01T11:18:50.061Z,100996.09
2018-10-01T11:21:19.410Z,101003.44
2018-10-01T11:23:48.718Z,101008.86
2018-10-01T11:26:18.202Z,101010.50
2018-10-01T11:28:47.709Z,101009.22
2018-10-01T11:31:17.105Z,101018.31
2018-10-01T11:33:46.711Z,101018.23
2018-10-01T11:36:16.078Z,101015.03
2018-10-01T11:38:45.492Z,101018.27
2018-10-01T11:41:14.839Z,101009.25
2018-10-01T11:43:44.227Z,101010.51
2018-10-01T11:46:13.729Z,101017.56
2018-10-01T11:48:43.101Z,101010.65
2018-10-01T11:51:12.680Z,101009.07
2018-10-01T11:53:41.962Z,101010.81
2018-10-01T11:56:11.283Z,101006.06
2018-10-01T11:58:40.606Z,101007.53
2018-10-01T12:01:10.720Z,101012.12
2018-10-01T12:03:40.152Z,101008.11
2018-10-01T12:06:09.574Z,100999.83
2018-10-01T12:08:38.931Z,100999.79
2018-10-01T12:11:08.287Z,100994.05
2018-10-01T12:13:37.658Z,101000.72
2018-10-01T12:16:08.215Z,100986.73
2018-10-01T12:18:37.582Z,100988.06
2018-10-01T12:21:06.986Z,100991.48
2018-10-01T12:23:36.398Z,100987.07
2018-10-01T12:26:05.818Z,100997.67
2018-10-01T12:28:35.282Z,100994.70
2018-10-01T12:31:04.638Z,101000.91
2018-10-01T12:33:34.055Z,100998.28
2018-10-01T12:36:03.589Z,100996.55
2018-10-01T12:38:33.153Z,101003.23
2018-10-01T12:41:02.649Z,100998.95
2018-10-01T12:43:33.097Z,101002.39
2018-10-01T12:46:02.574Z,101001.95
2018-10-01T12:48:31.949Z,101006.60
2018-10-01T12:51:01.365Z,101006.63
2018-10-01T12:53:30.727Z,101008.42
2018-10-01T12:56:00.055Z,101009.44
2018-10-01T12:58:29.577Z,101012.12
2018-10-01T13:00:58.960Z,101018.90
2018-10-01T13:03:28.374Z,101011.72
2018-10-01T13:05:57.853Z,101006.02
2018-10-01T13:08:27.312Z,101005.30
2018-10-01T13:10:56.768Z,101002.44
2018-10-01T13:13:26.203Z,101003.74
2018-10-01T13:15:55.544Z,101005.34
2018-10-01T13:18:24.972Z,101004.38
2018-10-01T13:20:54.302Z,101007.77
2018-10-01T13:23:23.786Z,101010.20
2018-10-01T13:25:53.155Z,101009.69
2018-10-01T13:28:22.574Z,101017.88
2018-10-01T13:30:52.067Z,101010.95
2018-10-01T13:33:21.459Z,101034.48
2018-10-01T13:35:50.915Z,101043.58
2018-10-01T13:38:20.351Z,101043.23
2018-10-01T13:40:49.762Z,101041.11
2018-10-01T13:43:19.090Z,101035.58
2018-10-01T13:45:48.707Z,101039.20
2018-10-01T13:48:18.465Z,101035.80
2018-10-01T13:50:47.720Z,101039.69
2018-10-01T13:53:17.116Z,101046.95
2018-10-01T13:55:47.504Z,101046.66
2018-10-01T13:58:16.971Z,101052.64
2018-10-01T14:00:46.335Z,101052.47
2018-10-01T14:03:15.756Z,101043.53
2018-10-01T14:05:45.252Z,101043.57
2018-10-01T14:08:14.631Z,101038.44
2018-10-01T14:10:44.106Z,101046.40
2018-10-01T14:13:13.610Z,101050.25
2018-10-01T14:15:42.907Z,101050.54
2018-10-01T14:18:12.519Z,101053.52
2018-10-01T14:20:42.338Z,101051.83
2018-10-01T14:23:11.807Z,101042.45
2018-10-01T14:25:41.326Z,101050.78
2018-10-01T14:28:11.263Z,101047.00
2018-10-01T14:30:40.726Z,101048.34
2018-10-01T14:33:10.238Z,101047.84
2018-10-01T14:35:39.744Z,101044.12
2018-10-01T14:38:09.163Z,101044.80
2018-10-01T14:40:38.713Z,101039.90
2018-10-01T14:43:08.247Z,101030.84
2018-10-01T14:45:37.562Z,101032.43
2018-10-01T14:48:07.020Z,101027.60
2018-10-01T14:50:36.360Z,101029.73
2018-10-01T14:53:05.923Z,101024.66
2018-10-01T14:55:35.255Z,101025.06
2018-10-01T14:58:04.611Z,101025.45
2018-10-01T15:00:34.212Z,101038.06
2018-10-01T15:03:03.690Z,101038.41
2018-10-01T15:05:33.258Z,101039.16
2018-10-01T15:08:02.738Z,101043.21
2018-10-01T15:10:32.213Z,101043.18
2018-10-01T15:13:01.583Z,101048.06
2018-10-01T15:15:31.079Z,101046.98
2018-10-01T15:18:00.693Z,101040.95
2018-10-01T15:20:30.117Z,101042.88
2018-10-01T15:22:59.619Z,101041.08
2018-10-01T15:25:28.974Z,101048.97
2018-10-01T15:27:58.422Z,101044.53
2018-10-01T15:30:28.089Z,101047.65
2018-10-01T15:32:57.434Z,101043.47
2018-10-01T15:35:26.842Z,101043.87
2018-10-01T15:37:56.514Z,101045.73
2018-10-01T15:40:25.897Z,101046.08
2018-10-01T15:42:55.389Z,101049.36
2018-10-01T15:45:24.754Z,101043.95
2018-10-01T15:47:54.120Z,101054.26
2018-10-01T15:50:23.630Z,101057.59
2018-10-01T15:52:53.493Z,101061.17
2018-10-01T15:55:22.962Z,101058.20
2018-10-01T15:57:53.350Z,101061.89
2018-10-01T16:00:22.787Z,101070.09
2018-10-01T16:02:52.358Z,101068.81
2018-10-01T16:05:21.914Z,101066.69
2018-10-01T16:07:51.371Z,101077.08
2018-10-01T16:10:20.918Z,101079.95
2018-10-01T16:12:50.314Z,101085.71
2018-10-01T16:15:19.926Z,101084.86
2018-10-01T16:17:49.287Z,101088.06
2018-10-01T16:20:18.684Z,101090.11
2018-10-01T16:22:48.086Z,101099.61
2018-10-01T16:25:17.495Z,101098.69
2018-10-01T16:27:46.925Z,101101.14
2018-10-01T16:30:16.357Z,101101.19
2018-10-01T16:32:45.844Z,101111.92
2018-10-01T16:35:15.249Z,101120.61
2018-10-01T16:37:44.676Z,101118.47
2018-10-01T16:40:14.040Z,101116.69
2018-10-01T16:42:43.386Z,101120.72
2018-10-01T16:45:12.855Z,101132.64
2018-10-01T16:47:42.189Z,101135.92
2018-10-01T16:50:11.657Z,101135.75
2018-10-01T16:52:41.048Z,101139.78
2018-10-01T16:55:10.537Z,101149.20
2018-10-01T16:57:39.926Z,101150.62
2018-10-01T17:00:09.383Z,101152.22
2018-10-01T17:02:38.818Z,101158.44
2018-10-01T17:05:08.473Z,101150.08
2018-10-01T17:07:38.014Z,101155.45
2018-10-01T17:10:07.544Z,101166.20
2018-10-01T17:12:37.017Z,101168.47
2018-10-01T17:15:06.951Z,101180.02
2018-10-01T17:17:36.315Z,101181.20
2018-10-01T17:20:05.758Z,101181.15
2018-10-01T17:22:35.210Z,101176.89
2018-10-01T17:25:04.978Z,101183.79
2018-10-01T17:27:34.459Z,101192.84
2018-10-01T17:30:04.169Z,101191.06
2018-10-01T17:32:33.554Z,101196.04
2018-10-01T17:35:02.985Z,101198.86
2018-10-01T17:37:32.371Z,101199.25
2018-10-01T17:40:01.746Z,101202.41
2018-10-01T17:42:31.170Z,101208.23
2018-10-01T17:45:00.617Z,101211.84
2018-10-01T17:47:30.007Z,101220.49
2018-10-01T17:49:59.552Z,101220.73
2018-10-01T17:52:28.914Z,101225.97
2018-10-01T17:54:58.267Z,101225.83
2018-10-01T17:57:27.742Z,101234.45
2018-10-01T17:59:57.155Z,101241.32
2018-10-01T18:02:26.545Z,101236.28
2018-10-01T18:04:55.898Z,101231.07
2018-10-01T18:07:25.438Z,101237.05
2018-10-01T18:09:54.945Z,101237.90
2018-10-01T18:12:24.314Z,101237.52
2018-10-01T18:14:53.806Z,101235.20
2018-10-01T18:17:23.228Z,101230.47
2018-10-01T18:19:52.586Z,101234.97
2018-10-01T18:22:22.086Z,101233.64
2018-10-01T18:24:51.907Z,101234.42
2018-10-01T18:27:21.254Z,101248.48
2018-10-01T18:29:50.751Z,101243.10
2018-10-01T18:32:20.174Z,101243.80
2018-10-01T18:34:49.573Z,101241.50
2018-10-01T18:37:18.966Z,101241.79
2018-10-01T18:39:49.132Z,101242.50
2018-10-01T18:42:18.574Z,101240.84
2018-10-01T18:44:48.070Z,101249.56
2018-10-01T18:47:17.547Z,101251.02
2018-10-01T18:49:46.926Z,101247.28
2018-10-01T18:52:16.350Z,101256.61
2018-10-01T18:54:45.842Z,101250.91
2018-10-01T18:57:15.354Z,101256.98
2018-10-01T18:59:44.896Z,101260.93
2018-10-01T19:02:14.494Z,101260.34
2018-10-01T19:04:43.889Z,101259.50
2018-10-01T19:07:13.316Z,101261.11
2018-10-01T19:09:42.933Z,101261.90
2018-10-01T19:12:12.376Z,101255.33
2018-10-01T19:14:41.839Z,101261.02
2018-10-01T19:17:11.173Z,101267.70
2018-10-01T19:19:40.582Z,101261.13
2018-10-01T19:22:10.663Z,101271.06
2018-10-01T19:24:40.042Z,101271.29
2018-10-01T19:27:09.694Z,101277.47
2018-10-01T19:29:39.138Z,101277.02
2018-10-01T19:32:08.617Z,101277.84
2018-10-01T19:34:38.119Z,101277.38
2018-10-01T19:37:07.529Z,101269.77
2018-10-01T19:39:36.986Z,101265.95
2018-10-01T19:42:06.503Z,101270.92
2018-10-01T19:44:36.014Z,101267.66
2018-10-01T19:47:05.730Z,101268.75
2018-10-01T19:49:35.163Z,101271.56
2018-10-01T19:52:04.546Z,101277.69
2018-10-01T19:54:33.983Z,101276.44
2018-10-01T19:57:03.447Z,101281.25
2018-10-01T19:59:32.803Z,101281.73
2018-10-01T20:02:02.242Z,101286.58
2018-10-01T20:04:31.578Z,101285.64
2018-10-01T20:07:00.941Z,101290.61
2018-10-01T20:09:30.355Z,101288.09
2018-10-01T20:11:59.742Z,101288.43
2018-10-01T20:14:29.109Z,101290.87
2018-10-01T20:16:58.850Z,101296.17
2018-10-01T20:19:28.357Z,101289.94
2018-10-01T20:21:57.719Z,101292.72
2018-10-01T20:24:27.250Z,101293.36
2018-10-01T20:26:56.758Z,101299.02
2018-10-01T20:29:26.355Z,101306.43
2018-10-01T20:31:55.534Z,101301.02
2018-10-01T20:34:25.015Z,101307.25
2018-10-01T20:36:54.646Z,101302.28
2018-10-01T20:39:24.015Z,101300.23
2018-10-01T20:41:53.540Z,101297.75
2018-10-01T20:44:23.061Z,101308.84
2018-10-01T20:46:52.431Z,101305.97
2018-10-01T20:49:21.918Z,101299.32
2018-10-01T20:51:51.336Z,101303.62
2018-10-01T20:54:20.699Z,101293.97
2018-10-01T20:56:50.564Z,101294.12
2018-10-01T20:59:20.080Z,101296.90
2018-10-01T21:01:49.488Z,101293.36
2018-10-01T21:04:18.978Z,101288.34
2018-10-01T21:06:48.674Z,101289.82
2018-10-01T21:09:18.110Z,101295.11
2018-10-01T21:11:47.731Z,101290.91
2018-10-01T21:14:17.286Z,101295.41
2018-10-01T21:16:46.722Z,101291.75
2018-10-01T21:19:16.143Z,101288.48
2018-10-01T21:21:45.547Z,101295.41
2018-10-01T21:24:14.886Z,101296.17
2018-10-01T21:26:44.270Z,101299.86
2018-10-01T21:29:13.713Z,101304.16
2018-10-01T21:31:43.048Z,101301.22
2018-10-01T21:34:12.620Z,101304.42
2018-10-01T21:36:41.914Z,101298.07
2018-10-01T21:40:23.965Z,101304.75
2018-10-01T21:42:53.310Z,101308.47
2018-10-01T21:45:22.677Z,101307.69
2018-10-01T21:47:52.009Z,101312.20
2018-10-01T21:50:21.449Z,101305.60
2018-10-01T21:52:50.945Z,101306.81
2018-10-01T21:55:20.438Z,101307.98
2018-10-01T21:57:49.890Z,101309.72
2018-10-01T22:00:19.361Z,101303.42
2018-10-01T22:02:48.753Z,101305.51
2018-10-01T22:05:18.198Z,101303.00
2018-10-01T22:07:47.785Z,101306.39
2018-10-01T22:10:17.194Z,101307.05
2018-10-01T22:12:46.726Z,101306.00
2018-10-01T22:15:16.061Z,101310.53
2018-10-01T22:17:45.598Z,101307.11
2018-10-01T22:20:14.989Z,101302.05
2018-10-01T22:22:44.534Z,101303.23
2018-10-01T22:25:13.902Z,101309.01
2018-10-01T22:27:43.302Z,101308.06
2018-10-01T22:30:12.706Z,101302.72
2018-10-01T22:32:42.018Z,101303.11
2018-10-01T22:35:11.446Z,101305.48
2018-10-01T22:37:40.827Z,101300.66
2018-10-01T22:40:10.210Z,101303.59
2018-10-01T22:42:39.606Z,101299.41
2018-10-01T22:45:09.019Z,101296.52
2018-10-01T22:47:38.625Z,101300.53
2018-10-01T22:50:08.062Z,101302.23
2018-10-01T22:52:37.600Z,101312.92
2018-10-01T22:55:07.289Z,101312.92
2018-10-01T22:57:36.707Z,101311.98
2018-10-01T23:00:06.313Z,101312.08
2018-10-01T23:02:35.674Z,101307.70
2018-10-01T23:05:05.550Z,101301.22
2018-10-01T23:07:34.896Z,101305.13
2018-10-01T23:10:04.431Z,101303.07
2018-10-01T23:12:33.817Z,101301.47
2018-10-01T23:15:03.294Z,101301.56
2018-10-01T23:17:32.737Z,101296.92
2018-10-01T23:20:02.150Z,101299.97
2018-10-01T23:22:31.524Z,101300.17
2018-10-01T23:25:00.875Z,101302.65
2018-10-01T23:27:30.215Z,101304.22
2018-10-01T23:29:59.674Z,101307.84
2018-10-01T23:32:29.056Z,101303.30
2018-10-01T23:34:58.571Z,101309.17
2018-10-01T23:37:27.954Z,101300.59
2018-10-01T23:39:57.455Z,101290.92
2018-10-01T23:42:26.914Z,101294.06
2018-10-01T23:44:56.351Z,101297.87
2018-10-01T23:47:25.755Z,101291.11
2018-10-01T23:49:55.417Z,101278.38
2018-10-01T23:52:24.765Z,101273.72
2018-10-01T23:54:54.174Z,101277.47
2018-10-01T23:57:23.642Z,101285.10
2018-10-01T23:59:53.255Z,101285.77
